Time;durP1;ratioP1;P1;durP2;ratioP2;P2;SDS_P1;SDS_P2;PMS_P1;PMS_P2;Temp;Humidity;BMP_temperature;BMP_pressure;BME280_temperature;BME280_humidity;BME280_pressure;Samples;Min_cycle;Max_cycle;Signal;HPM_P1;HPM_P2
2021/10/17 00:02:20;;;;;;;;;;;;;;;;;;5021235;28;19909;-75
2021/10/17 00:04:46;;;;;;;;;;;;;;;;;;5019990;28;19909;-75
2021/10/17 00:07:13;;;;;;;;;;;;;;;;;;5019692;28;20358;-75
2021/10/17 00:09:39;;;;;;;;;;;;;;;;;;5020281;28;20267;-75
2021/10/17 00:12:05;;;;;;;;;;;;;;;;;;5020071;28;19913;-76
2021/10/17 00:14:31;;;;;;;;;;;;;;;;;;5001910;28;20280;-75
2021/10/17 00:16:57;;;;;;;;;;;;;;;;;;5019426;28;20319;-74
2021/10/17 00:19:23;;;;;;;;;;;;;;;;;;5020162;28;19917;-76
2021/10/17 00:21:49;;;;;;;;;;;;;;;;;;5018958;28;19944;-75
2021/10/17 00:24:15;;;;;;;;;;;;;;;;;;5019466;28;19921;-76
2021/10/17 00:26:41;;;;;;;;;;;;;;;;;;5019048;28;19910;-75
2021/10/17 00:29:07;;;;;;;;;;;;;;;;;;5019717;28;19916;-75
2021/10/17 00:31:33;;;;;;;;;;;;;;;;;;5019434;28;19915;-74
2021/10/17 00:33:59;;;;;;;;;;;;;;;;;;5019747;28;19910;-73
2021/10/17 00:36:24;;;;;;;;;;;;;;;;;;5020047;28;19976;-75
2021/10/17 00:38:50;;;;;;;;;;;;;;;;;;5019682;28;19976;-76
2021/10/17 00:41:16;;;;;;;;;;;;;;;;;;5020274;28;19985;-75
2021/10/17 00:43:42;;;;;;;;;;;;;;;;;;5019088;28;19916;-76
2021/10/17 00:46:08;;;;;;;;;;;;;;;;;;5020403;28;19909;-75
2021/10/17 00:48:34;;;;;;;;;;;;;;;;;;5019411;28;20339;-74
2021/10/17 00:51:00;;;;;;;;;;;;;;;;;;5018948;28;20395;-75
2021/10/17 00:53:26;;;;;;;;;;;;;;;;;;5019738;28;20360;-76
2021/10/17 00:55:52;;;;;;;;;;;;;;;;;;5022190;28;19909;-73
2021/10/17 00:58:18;;;;;;;;;;;;;;;;;;5021024;28;19909;-75
2021/10/17 01:00:44;;;;;;;;;;;;;;;;;;5020334;28;19913;-75
2021/10/17 01:03:10;;;;;;;;;;;;;;;;;;5017219;28;19917;-73
2021/10/17 01:05:36;;;;;;;;;;;;;;;;;;5019192;28;19991;-74
2021/10/17 01:08:02;;;;;;;;;;;;;;;;;;5018853;28;19909;-75
2021/10/17 01:10:27;;;;;;;;;;;;;;;;;;5019312;28;20447;-75
2021/10/17 01:12:53;;;;;;;;;;;;;;;;;;5019743;28;19924;-75
2021/10/17 01:15:19;;;;;;;;;;;;;;;;;;5019498;28;19917;-74
2021/10/17 01:17:45;;;;;;;;;;;;;;;;;;5001484;28;19924;-77
2021/10/17 01:20:11;;;;;;;;;;;;;;;;;;5019695;28;19909;-76
2021/10/17 01:22:37;;;;;;;;;;;;;;;;;;5019308;28;20000;-73
2021/10/17 01:25:03;;;;;;;;;;;;;;;;;;5016517;28;19914;-75
2021/10/17 01:27:29;;;;;;;;;;;;;;;;;;5018879;28;19949;-76
2021/10/17 01:29:55;;;;;;;;;;;;;;;;;;5018430;28;19916;-75
2021/10/17 01:32:21;;;;;;;;;;;;;;;;;;5018557;28;20390;-75
2021/10/17 01:34:47;;;;;;;;;;;;;;;;;;5018069;28;19945;-74
2021/10/17 01:37:13;;;;;;;;;;;;;;;;;;5021168;28;19916;-76
2021/10/17 01:39:39;;;;;;;;;;;;;;;;;;5022503;28;19944;-76
2021/10/17 01:42:05;;;;;;;;;;;;;;;;;;5022747;28;20004;-75
2021/10/17 01:44:30;;;;;;;;;;;;;;;;;;5022131;28;19917;-75
2021/10/17 01:46:56;;;;;;;;;;;;;;;;;;5022466;28;19976;-76
2021/10/17 01:49:22;;;;;;;;;;;;;;;;;;5021626;28;19909;-77
2021/10/17 01:51:48;;;;;;;;;;;;;;;;;;5021573;28;20368;-76
2021/10/17 01:54:14;;;;;;;;;;;;;;;;;;5021689;28;19913;-75
2021/10/17 01:56:40;;;;;;;;;;;;;;;;;;5021501;28;20001;-76
2021/10/17 01:59:06;;;;;;;;;;;;;;;;;;5021649;28;20112;-75
2021/10/17 02:01:32;;;;;;;;;;;;;;;;;;5021389;28;19910;-77
2021/10/17 02:03:58;;;;;;;;;;;;;;;;;;5021695;28;19961;-74
2021/10/17 02:06:24;;;;;;;;;;;;;;;;;;5021063;28;19921;-77
2021/10/17 02:08:50;;;;;;;;;;;;;;;;;;5020555;28;19910;-76
2021/10/17 02:11:16;;;;;;;;;;;;;;;;;;5020411;28;19916;-73
2021/10/17 02:13:41;;;;;;;;;;;;;;;;;;5021137;28;19913;-76
2021/10/17 02:16:07;;;;;;;;;;;;;;;;;;5021298;28;19909;-76
2021/10/17 02:18:33;;;;;;;;;;;;;;;;;;5003758;28;19928;-74
2021/10/17 02:20:59;;;;;;;;;;;;;;;;;;5003856;28;19910;-76
2021/10/17 02:23:25;;;;;;;;;;;;;;;;;;5020595;28;19972;-75
2021/10/17 02:25:51;;;;;;;;;;;;;;;;;;5020841;28;19933;-76
2021/10/17 02:28:17;;;;;;;;;;;;;;;;;;5020550;28;19916;-76
2021/10/17 02:30:43;;;;;;;;;;;;;;;;;;5020694;28;19909;-76
2021/10/17 02:33:09;;;;;;;;;;;;;;;;;;5020233;28;19968;-75
2021/10/17 02:35:35;;;;;;;;;;;;;;;;;;5020261;28;19921;-78
2021/10/17 02:38:01;;;;;;;;;;;;;;;;;;5020385;28;19909;-75
2021/10/17 02:40:27;;;;;;;;;;;;;;;;;;5020047;28;19910;-76
2021/10/17 02:42:52;;;;;;;;;;;;;;;;;;5021006;28;20008;-76
2021/10/17 02:45:18;;;;;;;;;;;;;;;;;;5019903;28;19910;-74
2021/10/17 02:47:44;;;;;;;;;;;;;;;;;;5020367;28;19917;-76
2021/10/17 02:50:10;;;;;;;;;;;;;;;;;;5020450;28;19910;-75
2021/10/17 02:52:36;;;;;;;;;;;;;;;;;;5020437;28;19957;-76
2021/10/17 02:55:02;;;;;;;;;;;;;;;;;;5021700;28;19917;-75
2021/10/17 02:57:28;;;;;;;;;;;;;;;;;;5020255;28;19913;-74
2021/10/17 02:59:57;;;;;;;;;;;;;;;;;;5020194;28;19990;-75
2021/10/17 03:02:23;;;;;;;;;;;;;;;;;;5019573;28;20360;-75
2021/10/17 03:04:49;;;;;;;;;;;;;;;;;;5019947;28;19931;-76
2021/10/17 03:07:15;;;;;;;;;;;;;;;;;;5019620;28;19996;-75
2021/10/17 03:09:41;;;;;;;;;;;;;;;;;;5019290;28;19963;-76
2021/10/17 03:12:07;;;;;;;;;;;;;;;;;;5019312;28;19913;-75
2021/10/17 03:14:33;;;;;;;;;;;;;;;;;;5019401;28;19916;-76
2021/10/17 03:16:58;;;;;;;;;;;;;;;;;;5019141;28;19910;-76
2021/10/17 03:19:24;;;;;;;;;;;;;;;;;;5018361;28;19909;-75
2021/10/17 03:21:50;;;;;;;;;;;;;;;;;;5018653;28;19963;-75
2021/10/17 03:24:16;;;;;;;;;;;;;;;;;;5019244;28;20000;-77
2021/10/17 03:26:42;;;;;;;;;;;;;;;;;;5018142;28;19910;-74
2021/10/17 03:29:08;;;;;;;;;;;;;;;;;;5019618;28;19909;-76
2021/10/17 03:31:38;;;;;;;;;;;;;;;;;;5018977;28;19964;-76
2021/10/17 03:34:03;;;;;;;;;;;;;;;;;;5018662;28;19945;-76
2021/10/17 03:36:29;;;;;;;;;;;;;;;;;;5019204;28;20292;-75
2021/10/17 03:38:55;;;;;;;;;;;;;;;;;;5018349;28;20339;-74
2021/10/17 03:41:21;;;;;;;;;;;;;;;;;;5019065;28;19940;-76
2021/10/17 03:43:47;;;;;;;;;;;;;;;;;;5018702;28;19913;-73
2021/10/17 03:46:15;;;;;;;;;;;;;;;;;;5018182;28;20003;-76
2021/10/17 03:48:41;;;;;;;;;;;;;;;;;;5018401;28;20012;-76
2021/10/17 03:51:08;;;;;;;;;;;;;;;;;;5018383;28;20006;-74
2021/10/17 03:53:34;;;;;;;;;;;;;;;;;;5018968;28;19917;-75
2021/10/17 03:56:03;;;;;;;;;;;;;;;;;;5001998;28;20411;-74
2021/10/17 03:58:29;;;;;;;;;;;;;;;;;;5017687;28;19913;-74
2021/10/17 04:00:55;;;;;;;;;;;;;;;;;;4999713;28;20294;-76
2021/10/17 04:03:21;;;;;;;;;;;;;;;;;;5017718;28;20322;-76
2021/10/17 04:05:46;;;;;;;;;;;;;;;;;;5017285;28;19909;-76
2021/10/17 04:08:12;;;;;;;;;;;;;;;;;;5000051;28;20356;-77
2021/10/17 04:10:38;;;;;;;;;;;;;;;;;;5017581;28;19976;-76
2021/10/17 04:13:04;;;;;;;;;;;;;;;;;;5016899;28;19973;-76
2021/10/17 04:15:31;;;;;;;;;;;;;;;;;;5016188;28;19968;-76
2021/10/17 04:17:57;;;;;;;;;;;;;;;;;;4927926;28;1961617;-75
2021/10/17 04:20:23;;;;;;;;;;;;;;;;;;4997841;28;19917;-75
2021/10/17 04:22:49;;;;;;;;;;;;;;;;;;4998586;28;20272;-76
2021/10/17 04:25:15;;;;;;;;;;;;;;;;;;4997685;28;19910;-76
2021/10/17 04:27:41;;;;;;;;;;;;;;;;;;4998087;28;19906;-75
2021/10/17 04:30:07;;;;;;;;;;;;;;;;;;4996925;28;20257;-75
2021/10/17 04:32:33;;;;;;;;;;;;;;;;;;4997667;28;20253;-76
2021/10/17 04:34:59;;;;;;;;;;;;;;;;;;4996781;28;19910;-74
2021/10/17 04:37:25;;;;;;;;;;;;;;;;;;4997545;28;19968;-74
2021/10/17 04:39:51;;;;;;;;;;;;;;;;;;4997980;28;20332;-75
2021/10/17 04:42:17;;;;;;;;;;;;;;;;;;4997882;28;19916;-75
2021/10/17 04:44:43;;;;;;;;;;;;;;;;;;4996793;28;19910;-77
2021/10/17 04:47:08;;;;;;;;;;;;;;;;;;4998301;28;20276;-74
2021/10/17 04:49:34;;;;;;;;;;;;;;;;;;4997078;28;20340;-75
2021/10/17 04:52:00;;;;;;;;;;;;;;;;;;4998894;28;20336;-75
2021/10/17 04:54:26;;;;;;;;;;;;;;;;;;4998394;28;19933;-74
2021/10/17 04:56:52;;;;;;;;;;;;;;;;;;4999400;28;19956;-77
2021/10/17 04:59:21;;;;;;;;;;;;;;;;;;4998304;28;19929;-75
2021/10/17 05:01:47;;;;;;;;;;;;;;;;;;4998399;28;20288;-75
2021/10/17 05:04:13;;;;;;;;;;;;;;;;;;4999413;28;19910;-74
2021/10/17 05:06:39;;;;;;;;;;;;;;;;;;4997970;28;19917;-75
2021/10/17 05:09:05;;;;;;;;;;;;;;;;;;4998545;28;19910;-73
2021/10/17 05:11:31;;;;;;;;;;;;;;;;;;5000122;28;20008;-75
2021/10/17 05:13:57;;;;;;;;;;;;;;;;;;5002932;28;19956;-76
2021/10/17 05:16:23;;;;;;;;;;;;;;;;;;5002489;28;19917;-76
2021/10/17 05:18:49;;;;;;;;;;;;;;;;;;5017320;28;19965;-76
2021/10/17 05:21:15;;;;;;;;;;;;;;;;;;5022962;28;19920;-76
2021/10/17 05:23:41;;;;;;;;;;;;;;;;;;5004867;28;19910;-74
2021/10/17 05:26:07;;;;;;;;;;;;;;;;;;5022226;28;20000;-75
2021/10/17 05:28:32;;;;;;;;;;;;;;;;;;5022279;28;19916;-77
2021/10/17 05:31:00;;;;;;;;;;;;;;;;;;5021621;28;20002;-76
2021/10/17 05:33:26;;;;;;;;;;;;;;;;;;5021918;28;19913;-75
2021/10/17 05:35:52;;;;;;;;;;;;;;;;;;5022662;28;19916;-76
2021/10/17 05:38:24;;;;;;;;;;;;;;;;;;5023230;28;19910;-74
2021/10/17 05:40:50;;;;;;;;;;;;;;;;;;5022614;28;19988;-74
2021/10/17 05:43:16;;;;;;;;;;;;;;;;;;5023527;28;19949;-75
2021/10/17 05:45:42;;;;;;;;;;;;;;;;;;5005396;28;19910;-75
2021/10/17 05:48:08;;;;;;;;;;;;;;;;;;5026355;28;20047;-74
2021/10/17 05:50:34;;;;;;;;;;;;;;;;;;5026368;28;19914;-76
2021/10/17 05:53:00;;;;;;;;;;;;;;;;;;5007849;28;20431;-75
2021/10/17 05:55:25;;;;;;;;;;;;;;;;;;5024730;28;19910;-73
2021/10/17 05:57:51;;;;;;;;;;;;;;;;;;5026161;28;19955;-76
2021/10/17 06:00:18;;;;;;;;;;;;;;;;;;5026012;28;19932;-76
2021/10/17 06:02:44;;;;;;;;;;;;;;;;;;5025353;28;19932;-74
2021/10/17 06:05:09;;;;;;;;;;;;;;;;;;5007445;28;19980;-74
2021/10/17 06:07:36;;;;;;;;;;;;;;;;;;5025269;28;19932;-74
2021/10/17 06:10:01;;;;;;;;;;;;;;;;;;5005962;28;19959;-76
2021/10/17 06:12:28;;;;;;;;;;;;;;;;;;5025391;28;19917;-75
2021/10/17 06:14:54;;;;;;;;;;;;;;;;;;5024556;28;20397;-76
2021/10/17 06:17:20;;;;;;;;;;;;;;;;;;5024718;28;19972;-75
2021/10/17 06:19:45;;;;;;;;;;;;;;;;;;5025841;28;19996;-74
2021/10/17 06:22:11;;;;;;;;;;;;;;;;;;5025112;28;19932;-73
2021/10/17 06:24:38;;;;;;;;;;;;;;;;;;5024073;28;19916;-76
2021/10/17 06:27:04;;;;;;;;;;;;;;;;;;5023944;28;19914;-74
2021/10/17 06:29:30;;;;;;;;;;;;;;;;;;5025200;28;20385;-72
2021/10/17 06:31:56;;;;;;;;;;;;;;;;;;5022616;28;19909;-76
2021/10/17 06:34:22;;;;;;;;;;;;;;;;;;5019523;28;19916;-76
2021/10/17 06:36:48;;;;;;;;;;;;;;;;;;5007544;28;19909;-74
2021/10/17 06:39:14;;;;;;;;;;;;;;;;;;5025327;28;19920;-75
2021/10/17 06:41:40;;;;;;;;;;;;;;;;;;5024695;28;19909;-74
2021/10/17 06:44:06;;;;;;;;;;;;;;;;;;5024901;28;19909;-76
2021/10/17 06:46:32;;;;;;;;;;;;;;;;;;5024942;28;19952;-74
2021/10/17 06:48:58;;;;;;;;;;;;;;;;;;5023986;28;19992;-74
2021/10/17 06:51:24;;;;;;;;;;;;;;;;;;5023788;28;19913;-76
2021/10/17 06:53:50;;;;;;;;;;;;;;;;;;5024555;28;19918;-74
2021/10/17 06:56:16;;;;;;;;;;;;;;;;;;5024639;28;19936;-75
2021/10/17 06:58:41;;;;;;;;;;;;;;;;;;5024669;28;19914;-76
2021/10/17 07:01:07;;;;;;;;;;;;;;;;;;5025635;28;19910;-76
2021/10/17 07:03:33;;;;;;;;;;;;;;;;;;5022969;28;20356;-74
2021/10/17 07:05:59;;;;;;;;;;;;;;;;;;5024393;28;20321;-74
2021/10/17 07:08:25;;;;;;;;;;;;;;;;;;5024118;28;19909;-74
2021/10/17 07:10:51;;;;;;;;;;;;;;;;;;5025029;28;20439;-75
2021/10/17 07:13:17;;;;;;;;;;;;;;;;;;5024207;28;19988;-75
2021/10/17 07:15:43;;;;;;;;;;;;;;;;;;5024819;28;19910;-74
2021/10/17 07:18:09;;;;;;;;;;;;;;;;;;5025112;28;19922;-75
2021/10/17 07:20:35;;;;;;;;;;;;;;;;;;5024761;28;19910;-77
2021/10/17 07:23:01;;;;;;;;;;;;;;;;;;5023599;28;20364;-75
2021/10/17 07:25:27;;;;;;;;;;;;;;;;;;5024720;28;19913;-74
2021/10/17 07:27:53;;;;;;;;;;;;;;;;;;5024142;28;19944;-76
2021/10/17 07:30:20;;;;;;;;;;;;;;;;;;5023308;28;19931;-77
2021/10/17 07:32:46;;;;;;;;;;;;;;;;;;5023229;28;19941;-76
2021/10/17 07:35:12;;;;;;;;;;;;;;;;;;5019904;28;19956;-75
2021/10/17 07:37:38;;;;;;;;;;;;;;;;;;5021584;28;19973;-75
2021/10/17 07:40:04;;;;;;;;;;;;;;;;;;5023247;28;20007;-75
2021/10/17 07:42:29;;;;;;;;;;;;;;;;;;5022828;28;19917;-75
2021/10/17 07:44:55;;;;;;;;;;;;;;;;;;5023486;28;19963;-75
2021/10/17 07:47:21;;;;;;;;;;;;;;;;;;5024464;28;19960;-76
2021/10/17 07:49:47;;;;;;;;;;;;;;;;;;5023592;28;19917;-75
2021/10/17 07:52:13;;;;;;;;;;;;;;;;;;5024457;28;19920;-75
2021/10/17 07:54:41;;;;;;;;;;;;;;;;;;5025960;28;19909;-73
2021/10/17 07:57:07;;;;;;;;;;;;;;;;;;5025967;28;19916;-75
2021/10/17 07:59:33;;;;;;;;;;;;;;;;;;5026838;28;19909;-75
2021/10/17 08:01:58;;;;;;;;;;;;;;;;;;5025726;28;19917;-74
2021/10/17 08:04:25;;;;;;;;;;;;;;;;;;5019749;28;19920;-76
2021/10/17 08:06:51;;;;;;;;;;;;;;;;;;5020707;28;19909;-73
2021/10/17 08:09:17;;;;;;;;;;;;;;;;;;5021943;28;19931;-74
2021/10/17 08:11:43;;;;;;;;;;;;;;;;;;5020674;28;19965;-75
2021/10/17 08:14:09;;;;;;;;;;;;;;;;;;5020195;28;19913;-75
2021/10/17 08:16:35;;;;;;;;;;;;;;;;;;5018925;28;19921;-76
2021/10/17 08:19:01;;;;;;;;;;;;;;;;;;5017909;28;20354;-75
2021/10/17 08:21:27;;;;;;;;;;;;;;;;;;5018589;28;19916;-75
2021/10/17 08:23:53;;;;;;;;;;;;;;;;;;5020162;28;19917;-76
2021/10/17 08:26:19;;;;;;;;;;;;;;;;;;5013781;28;19959;-76
2021/10/17 08:28:45;;;;;;;;;;;;;;;;;;5013202;28;19916;-75
2021/10/17 08:31:11;;;;;;;;;;;;;;;;;;5018500;28;19909;-77
2021/10/17 08:33:37;;;;;;;;;;;;;;;;;;5006109;28;20471;-75
2021/10/17 08:36:03;;;;;;;;;;;;;;;;;;4998578;28;19964;-77
2021/10/17 08:38:28;;;;;;;;;;;;;;;;;;4999759;28;19914;-77
2021/10/17 08:40:59;;;;;;;;;;;;;;;;;;5000214;28;19913;-75
2021/10/17 08:43:25;;;;;;;;;;;;;;;;;;4998737;28;19976;-75
2021/10/17 08:45:51;;;;;;;;;;;;;;;;;;4999234;28;19909;-76
2021/10/17 08:48:17;;;;;;;;;;;;;;;;;;4999757;28;19917;-77
2021/10/17 08:50:43;;;;;;;;;;;;;;;;;;4999710;28;20280;-74
2021/10/17 08:53:09;;;;;;;;;;;;;;;;;;4999181;28;19913;-75
2021/10/17 08:55:34;;;;;;;;;;;;;;;;;;4999751;28;19977;-77
2021/10/17 08:58:00;;;;;;;;;;;;;;;;;;4998787;28;19956;-73
2021/10/17 09:00:26;;;;;;;;;;;;;;;;;;4998844;28;19909;-77
2021/10/17 09:02:55;;;;;;;;;;;;;;;;;;4999276;28;19910;-76
2021/10/17 09:05:24;;;;;;;;;;;;;;;;;;4999079;28;19910;-74
2021/10/17 09:07:50;;;;;;;;;;;;;;;;;;4999800;28;19914;-75
2021/10/17 09:10:16;;;;;;;;;;;;;;;;;;4998406;28;19967;-76
2021/10/17 09:12:42;;;;;;;;;;;;;;;;;;4997908;28;19914;-74
2021/10/17 09:15:08;;;;;;;;;;;;;;;;;;4998398;28;19910;-75
2021/10/17 09:17:34;;;;;;;;;;;;;;;;;;4998702;28;19928;-76
2021/10/17 09:20:00;;;;;;;;;;;;;;;;;;4998306;28;19910;-75
2021/10/17 09:22:25;;;;;;;;;;;;;;;;;;5000741;28;19932;-76
2021/10/17 09:24:52;;;;;;;;;;;;;;;;;;4999768;28;19910;-76
2021/10/17 09:27:18;;;;;;;;;;;;;;;;;;4998889;28;19964;-74
2021/10/17 09:29:45;;;;;;;;;;;;;;;;;;4997988;28;20288;-75
2021/10/17 09:32:11;;;;;;;;;;;;;;;;;;4997640;28;20369;-76
2021/10/17 09:34:37;;;;;;;;;;;;;;;;;;4996782;28;19964;-74
2021/10/17 09:37:03;;;;;;;;;;;;;;;;;;5000394;28;19964;-76
2021/10/17 09:39:34;;;;;;;;;;;;;;;;;;4999320;28;19910;-75
2021/10/17 09:41:59;;;;;;;;;;;;;;;;;;5004829;28;20353;-75
2021/10/17 09:44:25;;;;;;;;;;;;;;;;;;5001996;28;19910;-74
2021/10/17 09:46:51;;;;;;;;;;;;;;;;;;5004385;28;19910;-75
2021/10/17 09:49:17;;;;;;;;;;;;;;;;;;5004880;28;19968;-75
2021/10/17 09:51:43;;;;;;;;;;;;;;;;;;5000576;28;19910;-74
2021/10/17 09:54:09;;;;;;;;;;;;;;;;;;5005206;28;19913;-74
2021/10/17 09:56:38;;;;;;;;;;;;;;;;;;5004000;28;19916;-75
2021/10/17 09:59:04;;;;;;;;;;;;;;;;;;5008745;28;19981;-76
2021/10/17 10:01:30;;;;;;;;;;;;;;;;;;5008220;28;19917;-73
2021/10/17 10:03:56;;;;;;;;;;;;;;;;;;5009070;28;19917;-73
2021/10/17 10:06:25;;;;;;;;;;;;;;;;;;5007536;28;19917;-75
2021/10/17 10:08:51;;;;;;;;;;;;;;;;;;5002082;28;19910;-74
2021/10/17 10:11:17;;;;;;;;;;;;;;;;;;5002657;28;19909;-77
2021/10/17 10:13:43;;;;;;;;;;;;;;;;;;5004388;28;19964;-77
2021/10/17 10:16:09;;;;;;;;;;;;;;;;;;5000325;28;19989;-76
2021/10/17 10:18:35;;;;;;;;;;;;;;;;;;5001186;28;19941;-76
2021/10/17 10:21:01;;;;;;;;;;;;;;;;;;5002419;28;19917;-75
2021/10/17 10:23:27;;;;;;;;;;;;;;;;;;5001320;28;20016;-77
2021/10/17 10:25:52;;;;;;;;;;;;;;;;;;5001567;28;19965;-77
2021/10/17 10:28:20;;;;;;;;;;;;;;;;;;5001633;28;19914;-75
2021/10/17 10:30:45;;;;;;;;;;;;;;;;;;5001443;28;19941;-76
2021/10/17 10:33:13;;;;;;;;;;;;;;;;;;5002146;28;19913;-75
2021/10/17 10:35:39;;;;;;;;;;;;;;;;;;5002169;28;19967;-76
2021/10/17 10:38:05;;;;;;;;;;;;;;;;;;5002589;28;20001;-77
2021/10/17 10:40:31;;;;;;;;;;;;;;;;;;5000070;28;20320;-77
2021/10/17 10:42:56;;;;;;;;;;;;;;;;;;5002239;28;19917;-75
2021/10/17 10:45:22;;;;;;;;;;;;;;;;;;5006909;28;19964;-75
2021/10/17 10:47:48;;;;;;;;;;;;;;;;;;5008867;28;19910;-76
2021/10/17 10:50:14;;;;;;;;;;;;;;;;;;5008048;28;19914;-76
2021/10/17 10:52:43;;;;;;;;;;;;;;;;;;5008312;28;19940;-76
2021/10/17 10:55:09;;;;;;;;;;;;;;;;;;5008279;28;20017;-76
2021/10/17 10:57:35;;;;;;;;;;;;;;;;;;5009294;28;19914;-76
2021/10/17 11:00:01;;;;;;;;;;;;;;;;;;5008972;28;20043;-76
2021/10/17 11:02:27;;;;;;;;;;;;;;;;;;5008607;28;19939;-76
2021/10/17 11:04:52;;;;;;;;;;;;;;;;;;5007215;28;19910;-76
2021/10/17 11:07:18;;;;;;;;;;;;;;;;;;5007451;28;19910;-75
2021/10/17 11:09:44;;;;;;;;;;;;;;;;;;5003831;28;20403;-76
2021/10/17 11:12:10;;;;;;;;;;;;;;;;;;5005672;28;19917;-74
2021/10/17 11:14:36;;;;;;;;;;;;;;;;;;5005737;28;19972;-74
2021/10/17 11:17:02;;;;;;;;;;;;;;;;;;5005420;28;19910;-76
2021/10/17 11:19:28;;;;;;;;;;;;;;;;;;5002780;28;19910;-74
2021/10/17 11:21:54;;;;;;;;;;;;;;;;;;5002528;28;19913;-75
2021/10/17 11:24:23;;;;;;;;;;;;;;;;;;4999823;28;19910;-74
2021/10/17 11:26:52;;;;;;;;;;;;;;;;;;5001336;28;19910;-75
2021/10/17 11:29:17;;;;;;;;;;;;;;;;;;5001783;28;19909;-76
2021/10/17 11:31:43;;;;;;;;;;;;;;;;;;4998427;28;19933;-75
2021/10/17 11:34:09;;;;;;;;;;;;;;;;;;5000373;28;19921;-75
2021/10/17 11:36:35;;;;;;;;;;;;;;;;;;5001081;28;20337;-77
2021/10/17 11:39:02;;;;;;;;;;;;;;;;;;5000765;28;19941;-74
2021/10/17 11:41:27;;;;;;;;;;;;;;;;;;5003145;28;20377;-76
2021/10/17 11:43:53;;;;;;;;;;;;;;;;;;5002348;28;19916;-74
2021/10/17 11:46:19;;;;;;;;;;;;;;;;;;5000384;28;20005;-75
2021/10/17 11:48:45;;;;;;;;;;;;;;;;;;5004557;28;19910;-75
2021/10/17 11:51:11;;;;;;;;;;;;;;;;;;5006272;28;19932;-74
2021/10/17 11:53:37;;;;;;;;;;;;;;;;;;5006254;28;20288;-75
2021/10/17 11:56:09;;;;;;;;;;;;;;;;;;5007249;28;20373;-76
2021/10/17 11:58:35;;;;;;;;;;;;;;;;;;5000370;28;19918;-75
2021/10/17 12:01:01;;;;;;;;;;;;;;;;;;4999226;28;19980;-77
2021/10/17 12:03:27;;;;;;;;;;;;;;;;;;5002617;28;19913;-76
2021/10/17 12:05:53;;;;;;;;;;;;;;;;;;5016462;28;19982;-76
2021/10/17 12:08:19;;;;;;;;;;;;;;;;;;5019118;28;19910;-76
2021/10/17 12:10:45;;;;;;;;;;;;;;;;;;5014589;28;19968;-75
2021/10/17 12:13:11;;;;;;;;;;;;;;;;;;5002255;28;19918;-75
2021/10/17 12:15:40;;;;;;;;;;;;;;;;;;5010368;28;19933;-77
2021/10/17 12:18:06;;;;;;;;;;;;;;;;;;4998989;28;19929;-76
2021/10/17 12:20:32;;;;;;;;;;;;;;;;;;5016786;28;19909;-75
2021/10/17 12:22:58;;;;;;;;;;;;;;;;;;5006747;28;19913;-77
2021/10/17 12:25:24;;;;;;;;;;;;;;;;;;5008181;28;19921;-76
2021/10/17 12:27:50;;;;;;;;;;;;;;;;;;5017337;28;20009;-76
2021/10/17 12:30:16;;;;;;;;;;;;;;;;;;5015802;28;19920;-77
2021/10/17 12:32:44;;;;;;;;;;;;;;;;;;5018278;28;19914;-76
2021/10/17 12:35:10;;;;;;;;;;;;;;;;;;5018255;28;19909;-76
2021/10/17 12:37:36;;;;;;;;;;;;;;;;;;5018030;28;20366;-78
2021/10/17 12:40:02;;;;;;;;;;;;;;;;;;5018502;28;19910;-75
2021/10/17 12:42:27;;;;;;;;;;;;;;;;;;5009583;28;20001;-75
2021/10/17 12:44:56;;;;;;;;;;;;;;;;;;5009762;28;19914;-77
2021/10/17 12:47:22;;;;;;;;;;;;;;;;;;5018870;28;19917;-77
2021/10/17 12:49:51;;;;;;;;;;;;;;;;;;5018938;28;19909;-76
2021/10/17 12:52:17;;;;;;;;;;;;;;;;;;5019087;28;20283;-74
2021/10/17 12:54:43;;;;;;;;;;;;;;;;;;5024345;28;19957;-75
2021/10/17 12:57:09;;;;;;;;;;;;;;;;;;5024220;28;19917;-76
2021/10/17 12:59:36;;;;;;;;;;;;;;;;;;5021234;28;19914;-74
2021/10/17 13:02:04;;;;;;;;;;;;;;;;;;5025230;28;19910;-75
2021/10/17 13:04:30;;;;;;;;;;;;;;;;;;5023949;28;19913;-74
2021/10/17 13:07:05;;;;;;;;;;;;;;;;;;5025925;28;19981;-73
2021/10/17 13:09:31;;;;;;;;;;;;;;;;;;5026035;28;19976;-75
2021/10/17 13:12:03;;;;;;;;;;;;;;;;;;5026054;28;19917;-74
2021/10/17 13:14:29;;;;;;;;;;;;;;;;;;5026042;28;19999;-74
2021/10/17 13:16:55;;;;;;;;;;;;;;;;;;5026776;28;19914;-76
2021/10/17 13:19:23;;;;;;;;;;;;;;;;;;5008922;28;19936;-74
2021/10/17 13:21:49;;;;;;;;;;;;;;;;;;5025860;28;19909;-75
2021/10/17 13:24:15;;;;;;;;;;;;;;;;;;5026139;28;19920;-73
2021/10/17 13:26:41;;;;;;;;;;;;;;;;;;5026270;28;19996;-74
2021/10/17 13:29:07;;;;;;;;;;;;;;;;;;5026275;28;19932;-74
2021/10/17 13:31:33;;;;;;;;;;;;;;;;;;5008482;28;19909;-75
2021/10/17 13:33:59;;;;;;;;;;;;;;;;;;5029405;28;19956;-76
2021/10/17 13:36:24;;;;;;;;;;;;;;;;;;5027324;28;19913;-74
2021/10/17 13:38:50;;;;;;;;;;;;;;;;;;5028632;28;19921;-74
2021/10/17 13:41:18;;;;;;;;;;;;;;;;;;5029597;28;19910;-74
2021/10/17 13:43:44;;;;;;;;;;;;;;;;;;5028803;28;19914;-74
2021/10/17 13:46:10;;;;;;;;;;;;;;;;;;5029557;28;20004;-75
2021/10/17 13:48:36;;;;;;;;;;;;;;;;;;5029258;28;19979;-78
2021/10/17 13:51:02;;;;;;;;;;;;;;;;;;5011940;28;19968;-75
2021/10/17 13:53:27;;;;;;;;;;;;;;;;;;5029360;28;20276;-75
2021/10/17 13:55:53;;;;;;;;;;;;;;;;;;5012025;28;19943;-73
2021/10/17 13:58:19;;;;;;;;;;;;;;;;;;5028919;28;19909;-74
2021/10/17 14:00:45;;;;;;;;;;;;;;;;;;5029377;28;19933;-76
2021/10/17 14:03:11;;;;;;;;;;;;;;;;;;5029794;28;20322;-73
2021/10/17 14:05:37;;;;;;;;;;;;;;;;;;5029529;28;19917;-74
2021/10/17 14:08:03;;;;;;;;;;;;;;;;;;5029559;28;19909;-75
2021/10/17 14:10:29;;;;;;;;;;;;;;;;;;5027504;28;20424;-75
2021/10/17 14:12:55;;;;;;;;;;;;;;;;;;5025049;28;20335;-77
2021/10/17 14:15:21;;;;;;;;;;;;;;;;;;5005585;28;19959;-77
2021/10/17 14:17:47;;;;;;;;;;;;;;;;;;5023018;28;19917;-77
2021/10/17 14:20:13;;;;;;;;;;;;;;;;;;5024998;28;19992;-76
2021/10/17 14:22:39;;;;;;;;;;;;;;;;;;5023639;28;19910;-77
2021/10/17 14:25:05;;;;;;;;;;;;;;;;;;5022792;28;19985;-74
2021/10/17 14:27:31;;;;;;;;;;;;;;;;;;5021939;28;19913;-75
2021/10/17 14:29:57;;;;;;;;;;;;;;;;;;5023209;28;19917;-76
2021/10/17 14:32:31;;;;;;;;;;;;;;;;;;5023435;28;19917;-74
2021/10/17 14:34:57;;;;;;;;;;;;;;;;;;5026073;28;19937;-75
2021/10/17 14:37:23;;;;;;;;;;;;;;;;;;5018623;28;20249;-74
2021/10/17 14:39:49;;;;;;;;;;;;;;;;;;5015852;28;20296;-75
2021/10/17 14:42:18;;;;;;;;;;;;;;;;;;5006399;28;19913;-75
2021/10/17 14:44:44;;;;;;;;;;;;;;;;;;5026217;28;19918;-75
2021/10/17 14:47:10;;;;;;;;;;;;;;;;;;5025162;28;19934;-76
2021/10/17 14:49:39;;;;;;;;;;;;;;;;;;5021989;28;19914;-76
2021/10/17 14:52:08;;;;;;;;;;;;;;;;;;5019011;28;19916;-77
2021/10/17 14:54:34;;;;;;;;;;;;;;;;;;5010972;28;19985;-77
2021/10/17 14:57:00;;;;;;;;;;;;;;;;;;4997316;28;20020;-77
2021/10/17 14:59:27;;;;;;;;;;;;;;;;;;5020827;28;19910;-75
2021/10/17 15:01:53;;;;;;;;;;;;;;;;;;5023666;28;19921;-74
2021/10/17 15:04:19;;;;;;;;;;;;;;;;;;5021422;28;19921;-74
2021/10/17 15:06:45;;;;;;;;;;;;;;;;;;5004563;28;19914;-78
2021/10/17 15:09:14;;;;;;;;;;;;;;;;;;5002308;28;20004;-75
2021/10/17 15:11:40;;;;;;;;;;;;;;;;;;4985523;28;19914;-75
2021/10/17 15:14:07;;;;;;;;;;;;;;;;;;4998210;28;20360;-76
2021/10/17 15:16:36;;;;;;;;;;;;;;;;;;5016410;28;19914;-75
2021/10/17 15:19:02;;;;;;;;;;;;;;;;;;4983801;28;19921;-76
2021/10/17 15:21:28;;;;;;;;;;;;;;;;;;5016794;28;19921;-77
2021/10/17 15:23:53;;;;;;;;;;;;;;;;;;5007316;28;19921;-77
2021/10/17 15:26:19;;;;;;;;;;;;;;;;;;5006630;28;19933;-75
2021/10/17 15:28:45;;;;;;;;;;;;;;;;;;5007772;28;19917;-75
2021/10/17 15:31:11;;;;;;;;;;;;;;;;;;5027225;28;19916;-76
2021/10/17 15:33:37;;;;;;;;;;;;;;;;;;5008233;28;19913;-77
2021/10/17 15:36:03;;;;;;;;;;;;;;;;;;4996973;28;19910;-77
2021/10/17 15:38:29;;;;;;;;;;;;;;;;;;5006926;28;20314;-77
2021/10/17 15:40:55;;;;;;;;;;;;;;;;;;5014394;28;19989;-75
2021/10/17 15:43:21;;;;;;;;;;;;;;;;;;5007514;28;19914;-76
2021/10/17 15:45:47;;;;;;;;;;;;;;;;;;5006675;28;19952;-77
2021/10/17 15:48:13;;;;;;;;;;;;;;;;;;5013434;28;19913;-74
2021/10/17 15:50:48;;;;;;;;;;;;;;;;;;5019349;28;19910;-74
2021/10/17 15:53:14;;;;;;;;;;;;;;;;;;5007162;28;19913;-75
2021/10/17 15:55:40;;;;;;;;;;;;;;;;;;5006671;28;19981;-76
2021/10/17 15:58:06;;;;;;;;;;;;;;;;;;5008929;28;19910;-76
2021/10/17 16:00:31;;;;;;;;;;;;;;;;;;5003218;28;19914;-76
2021/10/17 16:02:58;;;;;;;;;;;;;;;;;;5006176;28;19917;-74
2021/10/17 16:05:28;;;;;;;;;;;;;;;;;;5009558;28;19940;-76
2021/10/17 16:07:54;;;;;;;;;;;;;;;;;;5019191;28;19914;-77
2021/10/17 16:10:20;;;;;;;;;;;;;;;;;;5018214;28;19913;-76
2021/10/17 16:12:46;;;;;;;;;;;;;;;;;;4988911;28;19941;-74
2021/10/17 16:15:12;;;;;;;;;;;;;;;;;;5013770;28;19964;-77
2021/10/17 16:17:38;;;;;;;;;;;;;;;;;;5004460;28;19956;-75
2021/10/17 16:20:06;;;;;;;;;;;;;;;;;;5008581;28;19926;-76
2021/10/17 16:22:31;;;;;;;;;;;;;;;;;;4989334;28;19914;-75
2021/10/17 16:24:57;;;;;;;;;;;;;;;;;;4992530;28;19967;-76
2021/10/17 16:27:26;;;;;;;;;;;;;;;;;;5014724;28;19914;-76
2021/10/17 16:29:52;;;;;;;;;;;;;;;;;;4989653;28;19936;-75
2021/10/17 16:32:20;;;;;;;;;;;;;;;;;;4989081;28;19910;-77
2021/10/17 16:34:46;;;;;;;;;;;;;;;;;;5006882;28;19964;-74
2021/10/17 16:37:12;;;;;;;;;;;;;;;;;;5006197;28;20376;-76
2021/10/17 16:39:38;;;;;;;;;;;;;;;;;;5005559;28;20016;-75